sensor_id;sensor_type;location;lat;lon;timestamp;temperature;humidity
80380;DHT22;69690;48.158;17.134;2023-07-29T00:01:34;23.40;58.30
80380;DHT22;69690;48.158;17.134;2023-07-29T00:06:36;23.30;58.50
80380;DHT22;69690;48.158;17.134;2023-07-29T00:11:38;23.30;58.60
80380;DHT22;69690;48.158;17.134;2023-07-29T00:16:39;23.30;58.90
80380;DHT22;69690;48.158;17.134;2023-07-29T00:21:40;23.20;59.20
80380;DHT22;69690;48.158;17.134;2023-07-29T00:26:42;23.10;59.60
80380;DHT22;69690;48.158;17.134;2023-07-29T00:31:43;23.10;59.70
80380;DHT22;69690;48.158;17.134;2023-07-29T00:36:45;23.10;59.80
80380;DHT22;69690;48.158;17.134;2023-07-29T00:41:47;23.20;59.70
80380;DHT22;69690;48.158;17.134;2023-07-29T00:46:51;23.10;59.90
80380;DHT22;69690;48.158;17.134;2023-07-29T00:51:54;22.90;60.50
80380;DHT22;69690;48.158;17.134;2023-07-29T00:56:59;22.90;61.00
80380;DHT22;69690;48.158;17.134;2023-07-29T01:02:00;22.90;61.10
80380;DHT22;69690;48.158;17.134;2023-07-29T01:12:35;23.00;60.90
80380;DHT22;69690;48.158;17.134;2023-07-29T01:18:07;23.00;60.70
80380;DHT22;69690;48.158;17.134;2023-07-29T01:23:10;23.00;60.90
80380;DHT22;69690;48.158;17.134;2023-07-29T01:28:12;23.00;60.90
80380;DHT22;69690;48.158;17.134;2023-07-29T01:33:20;22.90;61.40
80380;DHT22;69690;48.158;17.134;2023-07-29T01:38:33;22.80;62.10
80380;DHT22;69690;48.158;17.134;2023-07-29T01:43:37;22.70;62.10
80380;DHT22;69690;48.158;17.134;2023-07-29T01:48:43;22.70;62.20
80380;DHT22;69690;48.158;17.134;2023-07-29T01:53:47;22.60;62.70
80380;DHT22;69690;48.158;17.134;2023-07-29T01:58:49;22.60;62.80
80380;DHT22;69690;48.158;17.134;2023-07-29T02:03:50;22.60;62.90
80380;DHT22;69690;48.158;17.134;2023-07-29T02:08:55;22.60;63.10
80380;DHT22;69690;48.158;17.134;2023-07-29T02:13:57;22.60;63.10
80380;DHT22;69690;48.158;17.134;2023-07-29T02:18:58;22.60;63.10
80380;DHT22;69690;48.158;17.134;2023-07-29T02:24:00;22.50;63.60
80380;DHT22;69690;48.158;17.134;2023-07-29T02:29:01;22.40;63.80
80380;DHT22;69690;48.158;17.134;2023-07-29T02:34:02;22.30;64.10
80380;DHT22;69690;48.158;17.134;2023-07-29T02:39:04;22.10;64.90
80380;DHT22;69690;48.158;17.134;2023-07-29T02:44:05;21.90;65.70
80380;DHT22;69690;48.158;17.134;2023-07-29T02:49:07;21.90;66.10
80380;DHT22;69690;48.158;17.134;2023-07-29T02:54:08;21.90;66.10
80380;DHT22;69690;48.158;17.134;2023-07-29T02:59:10;22.00;66.00
80380;DHT22;69690;48.158;17.134;2023-07-29T03:04:11;22.10;65.90
80380;DHT22;69690;48.158;17.134;2023-07-29T03:09:14;22.10;65.70
80380;DHT22;69690;48.158;17.134;2023-07-29T03:14:15;22.20;65.50
80380;DHT22;69690;48.158;17.134;2023-07-29T03:19:16;22.20;65.40
80380;DHT22;69690;48.158;17.134;2023-07-29T03:24:18;22.20;65.50
80380;DHT22;69690;48.158;17.134;2023-07-29T03:29:19;22.10;65.80
80380;DHT22;69690;48.158;17.134;2023-07-29T03:34:20;22.10;66.00
80380;DHT22;69690;48.158;17.134;2023-07-29T03:39:22;22.10;66.20
80380;DHT22;69690;48.158;17.134;2023-07-29T03:44:24;21.90;66.90
80380;DHT22;69690;48.158;17.134;2023-07-29T03:49:25;21.80;67.50
80380;DHT22;69690;48.158;17.134;2023-07-29T03:54:26;21.90;67.40
80380;DHT22;69690;48.158;17.134;2023-07-29T03:59:27;22.00;66.90
80380;DHT22;69690;48.158;17.134;2023-07-29T04:04:29;22.10;66.60
80380;DHT22;69690;48.158;17.134;2023-07-29T04:09:30;22.20;66.60
80380;DHT22;69690;48.158;17.134;2023-07-29T04:14:31;22.20;66.50
80380;DHT22;69690;48.158;17.134;2023-07-29T04:19:33;22.30;66.50
80380;DHT22;69690;48.158;17.134;2023-07-29T04:24:37;22.30;66.40
80380;DHT22;69690;48.158;17.134;2023-07-29T04:29:39;22.40;66.10
80380;DHT22;69690;48.158;17.134;2023-07-29T04:34:40;22.60;65.60
80380;DHT22;69690;48.158;17.134;2023-07-29T04:39:42;22.70;65.10
80380;DHT22;69690;48.158;17.134;2023-07-29T04:44:43;22.80;64.20
80380;DHT22;69690;48.158;17.134;2023-07-29T04:49:44;22.90;63.50
80380;DHT22;69690;48.158;17.134;2023-07-29T04:54:45;23.10;63.10
80380;DHT22;69690;48.158;17.134;2023-07-29T04:59:47;23.20;62.50
80380;DHT22;69690;48.158;17.134;2023-07-29T05:04:48;23.20;62.20
80380;DHT22;69690;48.158;17.134;2023-07-29T05:09:49;23.20;62.40
80380;DHT22;69690;48.158;17.134;2023-07-29T05:14:51;23.20;62.20
80380;DHT22;69690;48.158;17.134;2023-07-29T05:19:52;23.30;62.10
80380;DHT22;69690;48.158;17.134;2023-07-29T05:24:53;23.20;62.10
80380;DHT22;69690;48.158;17.134;2023-07-29T05:29:54;23.00;62.90
80380;DHT22;69690;48.158;17.134;2023-07-29T05:34:56;22.70;64.90
80380;DHT22;69690;48.158;17.134;2023-07-29T05:39:58;22.60;66.30
80380;DHT22;69690;48.158;17.134;2023-07-29T05:44:59;22.60;66.20
80380;DHT22;69690;48.158;17.134;2023-07-29T05:50:00;22.60;66.10
80380;DHT22;69690;48.158;17.134;2023-07-29T05:55:05;22.80;65.50
80380;DHT22;69690;48.158;17.134;2023-07-29T06:00:07;22.90;64.20
80380;DHT22;69690;48.158;17.134;2023-07-29T06:05:13;23.00;63.00
80380;DHT22;69690;48.158;17.134;2023-07-29T06:10:16;23.20;61.70
80380;DHT22;69690;48.158;17.134;2023-07-29T06:15:20;23.30;61.40
80380;DHT22;69690;48.158;17.134;2023-07-29T06:20:23;23.50;61.10
80380;DHT22;69690;48.158;17.134;2023-07-29T06:25:26;23.50;60.40
80380;DHT22;69690;48.158;17.134;2023-07-29T06:30:27;23.70;60.00
80380;DHT22;69690;48.158;17.134;2023-07-29T06:35:29;23.60;60.50
80380;DHT22;69690;48.158;17.134;2023-07-29T06:40:30;23.60;61.00
80380;DHT22;69690;48.158;17.134;2023-07-29T06:45:32;23.60;60.20
80380;DHT22;69690;48.158;17.134;2023-07-29T06:50:33;23.70;57.30
80380;DHT22;69690;48.158;17.134;2023-07-29T06:55:35;23.90;57.50
80380;DHT22;69690;48.158;17.134;2023-07-29T07:00:36;24.30;56.10
80380;DHT22;69690;48.158;17.134;2023-07-29T07:05:37;24.70;54.20
80380;DHT22;69690;48.158;17.134;2023-07-29T07:10:38;24.90;54.40
80380;DHT22;69690;48.158;17.134;2023-07-29T07:15:40;25.00;53.60
80380;DHT22;69690;48.158;17.134;2023-07-29T07:20:41;25.10;53.50
80380;DHT22;69690;48.158;17.134;2023-07-29T07:25:42;25.20;53.70
80380;DHT22;69690;48.158;17.134;2023-07-29T07:30:44;25.20;53.60
80380;DHT22;69690;48.158;17.134;2023-07-29T07:35:45;25.10;53.50
80380;DHT22;69690;48.158;17.134;2023-07-29T07:40:56;25.30;53.70
80380;DHT22;69690;48.158;17.134;2023-07-29T07:45:58;25.30;53.10
80380;DHT22;69690;48.158;17.134;2023-07-29T07:51:00;25.30;53.50
80380;DHT22;69690;48.158;17.134;2023-07-29T07:56:12;25.20;53.30
80380;DHT22;69690;48.158;17.134;2023-07-29T08:01:13;25.30;52.70
80380;DHT22;69690;48.158;17.134;2023-07-29T08:06:14;25.40;51.90
80380;DHT22;69690;48.158;17.134;2023-07-29T08:11:15;25.50;51.50
80380;DHT22;69690;48.158;17.134;2023-07-29T08:16:17;25.60;51.30
80380;DHT22;69690;48.158;17.134;2023-07-29T08:21:18;25.70;51.50
80380;DHT22;69690;48.158;17.134;2023-07-29T08:26:19;25.80;51.40
80380;DHT22;69690;48.158;17.134;2023-07-29T08:31:22;25.80;51.50
80380;DHT22;69690;48.158;17.134;2023-07-29T08:36:23;26.10;49.80
80380;DHT22;69690;48.158;17.134;2023-07-29T08:46:53;26.70;48.50
